sensor_id;sensor_type;location;lat;lon;timestamp;temperature;humidity
78289;DHT22;67539;48.752;12.922;2023-02-28T00:01:42;-1.20;75.50
78289;DHT22;67539;48.752;12.922;2023-02-28T00:04:11;-1.20;75.70
78289;DHT22;67539;48.752;12.922;2023-02-28T00:06:40;-1.20;75.50
78289;DHT22;67539;48.752;12.922;2023-02-28T00:09:08;-1.20;75.40
78289;DHT22;67539;48.752;12.922;2023-02-28T00:11:38;-1.20;75.50
78289;DHT22;67539;48.752;12.922;2023-02-28T00:14:07;-1.20;75.60
78289;DHT22;67539;48.752;12.922;2023-02-28T00:16:35;-1.20;75.60
78289;DHT22;67539;48.752;12.922;2023-02-28T00:19:03;-1.20;75.50
78289;DHT22;67539;48.752;12.922;2023-02-28T00:21:31;-1.20;75.80
78289;DHT22;67539;48.752;12.922;2023-02-28T00:23:59;-1.20;76.10
78289;DHT22;67539;48.752;12.922;2023-02-28T00:26:27;-1.20;76.40
78289;DHT22;67539;48.752;12.922;2023-02-28T00:28:57;-1.10;76.30
78289;DHT22;67539;48.752;12.922;2023-02-28T00:31:25;-1.10;76.20
78289;DHT22;67539;48.752;12.922;2023-02-28T00:33:54;-1.10;76.50
78289;DHT22;67539;48.752;12.922;2023-02-28T00:36:22;-1.10;76.80
78289;DHT22;67539;48.752;12.922;2023-02-28T00:38:50;-1.10;76.90
78289;DHT22;67539;48.752;12.922;2023-02-28T00:41:19;-1.10;77.10
78289;DHT22;67539;48.752;12.922;2023-02-28T00:43:47;-1.10;77.20
78289;DHT22;67539;48.752;12.922;2023-02-28T00:46:17;-1.10;77.00
78289;DHT22;67539;48.752;12.922;2023-02-28T00:48:45;-1.10;77.40
78289;DHT22;67539;48.752;12.922;2023-02-28T00:51:14;-1.10;77.70
78289;DHT22;67539;48.752;12.922;2023-02-28T00:53:42;-1.10;77.30
78289;DHT22;67539;48.752;12.922;2023-02-28T00:56:10;-1.10;77.50
78289;DHT22;67539;48.752;12.922;2023-02-28T00:58:38;-1.10;77.70
78289;DHT22;67539;48.752;12.922;2023-02-28T01:01:07;-1.10;77.90
78289;DHT22;67539;48.752;12.922;2023-02-28T01:03:38;-1.10;78.00
78289;DHT22;67539;48.752;12.922;2023-02-28T01:06:07;-1.10;77.60
78289;DHT22;67539;48.752;12.922;2023-02-28T01:08:37;-1.10;77.80
78289;DHT22;67539;48.752;12.922;2023-02-28T01:11:11;-1.10;77.90
78289;DHT22;67539;48.752;12.922;2023-02-28T01:13:40;-1.10;78.20
78289;DHT22;67539;48.752;12.922;2023-02-28T01:16:08;-1.10;78.10
78289;DHT22;67539;48.752;12.922;2023-02-28T01:18:38;-1.10;78.20
78289;DHT22;67539;48.752;12.922;2023-02-28T01:21:09;-1.10;78.00
78289;DHT22;67539;48.752;12.922;2023-02-28T01:23:39;-1.20;78.60
78289;DHT22;67539;48.752;12.922;2023-02-28T01:26:11;-1.10;79.00
78289;DHT22;67539;48.752;12.922;2023-02-28T01:28:40;-1.20;78.60
78289;DHT22;67539;48.752;12.922;2023-02-28T01:31:09;-1.20;78.60
78289;DHT22;67539;48.752;12.922;2023-02-28T01:33:40;-1.20;78.70
78289;DHT22;67539;48.752;12.922;2023-02-28T01:36:11;-1.20;78.70
78289;DHT22;67539;48.752;12.922;2023-02-28T01:38:40;-1.20;78.70
78289;DHT22;67539;48.752;12.922;2023-02-28T01:41:09;-1.20;79.10
78289;DHT22;67539;48.752;12.922;2023-02-28T01:44:01;-1.20;79.20
78289;DHT22;67539;48.752;12.922;2023-02-28T01:46:32;-1.30;79.50
78289;DHT22;67539;48.752;12.922;2023-02-28T01:49:08;-1.30;79.90
78289;DHT22;67539;48.752;12.922;2023-02-28T01:51:40;-1.30;80.20
78289;DHT22;67539;48.752;12.922;2023-02-28T01:54:15;-1.30;80.40
78289;DHT22;67539;48.752;12.922;2023-02-28T01:56:52;-1.30;80.30
78289;DHT22;67539;48.752;12.922;2023-02-28T01:59:28;-1.30;80.40
78289;DHT22;67539;48.752;12.922;2023-02-28T02:01:58;-1.30;80.60
78289;DHT22;67539;48.752;12.922;2023-02-28T02:04:38;-1.30;80.40
78289;DHT22;67539;48.752;12.922;2023-02-28T02:07:09;-1.30;80.40
78289;DHT22;67539;48.752;12.922;2023-02-28T02:09:38;-1.30;80.80
78289;DHT22;67539;48.752;12.922;2023-02-28T02:12:15;-1.30;80.60
78289;DHT22;67539;48.752;12.922;2023-02-28T02:14:59;-1.40;80.90
78289;DHT22;67539;48.752;12.922;2023-02-28T02:17:33;-1.40;81.10
78289;DHT22;67539;48.752;12.922;2023-02-28T02:25:56;-1.50;81.50
78289;DHT22;67539;48.752;12.922;2023-02-28T02:31:56;-1.50;81.80
78289;DHT22;67539;48.752;12.922;2023-02-28T02:34:41;-1.60;81.80
78289;DHT22;67539;48.752;12.922;2023-02-28T02:37:20;-1.60;81.80
78289;DHT22;67539;48.752;12.922;2023-02-28T02:39:53;-1.60;81.90
78289;DHT22;67539;48.752;12.922;2023-02-28T02:42:27;-1.60;82.20
78289;DHT22;67539;48.752;12.922;2023-02-28T02:44:59;-1.60;82.00
78289;DHT22;67539;48.752;12.922;2023-02-28T02:47:30;-1.70;81.90
78289;DHT22;67539;48.752;12.922;2023-02-28T02:50:03;-1.60;82.50
78289;DHT22;67539;48.752;12.922;2023-02-28T02:52:38;-1.70;81.80
78289;DHT22;67539;48.752;12.922;2023-02-28T02:55:09;-1.70;82.00
78289;DHT22;67539;48.752;12.922;2023-02-28T02:57:45;-1.70;81.90
78289;DHT22;67539;48.752;12.922;2023-02-28T03:00:16;-1.70;81.70
78289;DHT22;67539;48.752;12.922;2023-02-28T03:02:47;-1.70;81.80
78289;DHT22;67539;48.752;12.922;2023-02-28T03:05:21;-1.70;82.20
78289;DHT22;67539;48.752;12.922;2023-02-28T03:07:51;-1.80;82.30
78289;DHT22;67539;48.752;12.922;2023-02-28T03:10:34;-1.80;81.60
78289;DHT22;67539;48.752;12.922;2023-02-28T03:13:16;-1.80;81.60
78289;DHT22;67539;48.752;12.922;2023-02-28T03:16:03;-1.80;81.60
78289;DHT22;67539;48.752;12.922;2023-02-28T03:18:40;-1.80;81.70
78289;DHT22;67539;48.752;12.922;2023-02-28T03:21:20;-1.80;81.60
78289;DHT22;67539;48.752;12.922;2023-02-28T03:23:58;-1.80;81.50
78289;DHT22;67539;48.752;12.922;2023-02-28T03:26:31;-1.70;81.90
78289;DHT22;67539;48.752;12.922;2023-02-28T03:29:04;-1.70;81.50
78289;DHT22;67539;48.752;12.922;2023-02-28T03:31:39;-1.70;81.50
78289;DHT22;67539;48.752;12.922;2023-02-28T03:34:12;-1.70;81.30
78289;DHT22;67539;48.752;12.922;2023-02-28T03:36:46;-1.60;81.10
78289;DHT22;67539;48.752;12.922;2023-02-28T03:39:18;-1.60;81.10
78289;DHT22;67539;48.752;12.922;2023-02-28T03:41:51;-1.60;81.10
78289;DHT22;67539;48.752;12.922;2023-02-28T03:44:24;-1.60;81.30
78289;DHT22;67539;48.752;12.922;2023-02-28T03:46:58;-1.60;81.40
78289;DHT22;67539;48.752;12.922;2023-02-28T03:49:34;-1.60;81.40
78289;DHT22;67539;48.752;12.922;2023-02-28T03:52:06;-1.60;81.20
78289;DHT22;67539;48.752;12.922;2023-02-28T03:54:40;-1.60;81.00
78289;DHT22;67539;48.752;12.922;2023-02-28T03:57:12;-1.60;81.20
78289;DHT22;67539;48.752;12.922;2023-02-28T03:59:46;-1.60;80.90
78289;DHT22;67539;48.752;12.922;2023-02-28T04:02:15;-1.60;80.80
78289;DHT22;67539;48.752;12.922;2023-02-28T04:04:45;-1.50;80.80
78289;DHT22;67539;48.752;12.922;2023-02-28T04:07:17;-1.60;80.80
78289;DHT22;67539;48.752;12.922;2023-02-28T04:09:46;-1.50;80.50
78289;DHT22;67539;48.752;12.922;2023-02-28T04:12:14;-1.50;80.60
78289;DHT22;67539;48.752;12.922;2023-02-28T04:14:43;-1.50;80.60
78289;DHT22;67539;48.752;12.922;2023-02-28T04:17:11;-1.50;80.50
78289;DHT22;67539;48.752;12.922;2023-02-28T04:19:39;-1.50;80.70
78289;DHT22;67539;48.752;12.922;2023-02-28T04:22:08;-1.60;81.50
78289;DHT22;67539;48.752;12.922;2023-02-28T04:24:38;-1.60;81.30
78289;DHT22;67539;48.752;12.922;2023-02-28T04:27:09;-1.50;80.90
78289;DHT22;67539;48.752;12.922;2023-02-28T04:29:37;-1.50;80.50
78289;DHT22;67539;48.752;12.922;2023-02-28T04:32:06;-1.60;81.00
78289;DHT22;67539;48.752;12.922;2023-02-28T04:34:34;-1.60;80.90
78289;DHT22;67539;48.752;12.922;2023-02-28T04:37:03;-1.60;80.80
78289;DHT22;67539;48.752;12.922;2023-02-28T04:39:41;-1.60;81.20
78289;DHT22;67539;48.752;12.922;2023-02-28T04:42:09;-1.60;82.00
78289;DHT22;67539;48.752;12.922;2023-02-28T04:44:38;-1.60;82.00
78289;DHT22;67539;48.752;12.922;2023-02-28T04:47:06;-1.70;82.00
78289;DHT22;67539;48.752;12.922;2023-02-28T04:49:34;-1.70;82.20
78289;DHT22;67539;48.752;12.922;2023-02-28T04:52:02;-1.80;82.10
78289;DHT22;67539;48.752;12.922;2023-02-28T04:54:30;-1.80;82.60
78289;DHT22;67539;48.752;12.922;2023-02-28T04:57:00;-1.80;82.60
78289;DHT22;67539;48.752;12.922;2023-02-28T04:59:28;-1.90;82.00
78289;DHT22;67539;48.752;12.922;2023-02-28T05:01:56;-1.80;82.00
78289;DHT22;67539;48.752;12.922;2023-02-28T05:04:24;-1.90;81.90
78289;DHT22;67539;48.752;12.922;2023-02-28T05:06:53;-1.90;81.40
78289;DHT22;67539;48.752;12.922;2023-02-28T05:09:22;-1.90;81.80
78289;DHT22;67539;48.752;12.922;2023-02-28T05:11:50;-1.90;81.80
78289;DHT22;67539;48.752;12.922;2023-02-28T05:14:19;-2.00;82.10
78289;DHT22;67539;48.752;12.922;2023-02-28T05:16:47;-2.00;81.90
78289;DHT22;67539;48.752;12.922;2023-02-28T05:19:15;-1.90;80.70
78289;DHT22;67539;48.752;12.922;2023-02-28T05:21:50;-1.90;80.60
78289;DHT22;67539;48.752;12.922;2023-02-28T05:24:19;-2.00;80.80
78289;DHT22;67539;48.752;12.922;2023-02-28T05:26:50;-2.00;81.40
78289;DHT22;67539;48.752;12.922;2023-02-28T05:29:21;-2.10;82.00
78289;DHT22;67539;48.752;12.922;2023-02-28T05:31:49;-2.10;82.30
78289;DHT22;67539;48.752;12.922;2023-02-28T05:34:18;-2.00;81.60
78289;DHT22;67539;48.752;12.922;2023-02-28T05:36:46;-2.10;81.70
78289;DHT22;67539;48.752;12.922;2023-02-28T05:39:14;-2.10;81.50
78289;DHT22;67539;48.752;12.922;2023-02-28T05:41:43;-2.10;81.60
78289;DHT22;67539;48.752;12.922;2023-02-28T05:44:11;-2.10;81.60
78289;DHT22;67539;48.752;12.922;2023-02-28T05:46:41;-2.00;81.10
78289;DHT22;67539;48.752;12.922;2023-02-28T05:49:09;-2.00;80.60
78289;DHT22;67539;48.752;12.922;2023-02-28T05:51:38;-2.00;80.90
78289;DHT22;67539;48.752;12.922;2023-02-28T05:54:07;-2.10;80.60
78289;DHT22;67539;48.752;12.922;2023-02-28T05:56:35;-2.00;81.00
78289;DHT22;67539;48.752;12.922;2023-02-28T05:59:06;-2.00;81.20
78289;DHT22;67539;48.752;12.922;2023-02-28T06:01:36;-2.00;80.70
78289;DHT22;67539;48.752;12.922;2023-02-28T06:04:08;-2.00;81.00
78289;DHT22;67539;48.752;12.922;2023-02-28T06:06:49;-2.00;80.80
78289;DHT22;67539;48.752;12.922;2023-02-28T06:09:17;-2.00;80.40
78289;DHT22;67539;48.752;12.922;2023-02-28T06:11:47;-2.00;80.50
78289;DHT22;67539;48.752;12.922;2023-02-28T06:14:19;-1.90;80.30
78289;DHT22;67539;48.752;12.922;2023-02-28T06:16:47;-2.00;80.90
78289;DHT22;67539;48.752;12.922;2023-02-28T06:19:17;-2.00;81.10
78289;DHT22;67539;48.752;12.922;2023-02-28T06:21:49;-2.00;81.60
78289;DHT22;67539;48.752;12.922;2023-02-28T06:24:17;-2.00;81.50
78289;DHT22;67539;48.752;12.922;2023-02-28T06:26:45;-2.00;81.40
78289;DHT22;67539;48.752;12.922;2023-02-28T06:29:14;-1.90;81.50
78289;DHT22;67539;48.752;12.922;2023-02-28T06:31:44;-1.90;81.70
78289;DHT22;67539;48.752;12.922;2023-02-28T06:34:13;-1.80;81.50
78289;DHT22;67539;48.752;12.922;2023-02-28T06:36:43;-1.80;81.60
78289;DHT22;67539;48.752;12.922;2023-02-28T06:39:11;-1.70;81.80
78289;DHT22;67539;48.752;12.922;2023-02-28T06:41:39;-1.70;81.20
78289;DHT22;67539;48.752;12.922;2023-02-28T06:44:22;-1.60;81.00
78289;DHT22;67539;48.752;12.922;2023-02-28T06:46:50;-1.50;80.50
78289;DHT22;67539;48.752;12.922;2023-02-28T06:49:18;-1.40;80.30
78289;DHT22;67539;48.752;12.922;2023-02-28T06:51:48;-1.40;80.40
78289;DHT22;67539;48.752;12.922;2023-02-28T06:54:16;-1.40;80.00
78289;DHT22;67539;48.752;12.922;2023-02-28T06:56:45;-1.30;79.20
78289;DHT22;67539;48.752;12.922;2023-02-28T06:59:13;-1.30;78.80
78289;DHT22;67539;48.752;12.922;2023-02-28T07:01:42;-1.30;78.90
78289;DHT22;67539;48.752;12.922;2023-02-28T07:04:10;-1.20;78.60
78289;DHT22;67539;48.752;12.922;2023-02-28T07:06:40;-1.10;78.20
78289;DHT22;67539;48.752;12.922;2023-02-28T07:09:09;-1.00;78.30
78289;DHT22;67539;48.752;12.922;2023-02-28T07:11:38;-0.90;78.00
78289;DHT22;67539;48.752;12.922;2023-02-28T07:14:06;-0.90;77.30
78289;DHT22;67539;48.752;12.922;2023-02-28T07:16:35;-0.80;77.50
78289;DHT22;67539;48.752;12.922;2023-02-28T07:19:04;-0.70;77.20
78289;DHT22;67539;48.752;12.922;2023-02-28T07:21:32;-0.70;77.30
78289;DHT22;67539;48.752;12.922;2023-02-28T07:24:00;-0.60;77.10
78289;DHT22;67539;48.752;12.922;2023-02-28T07:26:29;-0.60;76.60
78289;DHT22;67539;48.752;12.922;2023-02-28T07:29:01;-0.50;77.40
78289;DHT22;67539;48.752;12.922;2023-02-28T07:31:29;-0.50;75.90
78289;DHT22;67539;48.752;12.922;2023-02-28T07:33:58;-0.40;74.90
78289;DHT22;67539;48.752;12.922;2023-02-28T07:36:26;-0.30;75.30
78289;DHT22;67539;48.752;12.922;2023-02-28T07:38:55;-0.20;74.20
78289;DHT22;67539;48.752;12.922;2023-02-28T07:41:23;-0.20;74.10
78289;DHT22;67539;48.752;12.922;2023-02-28T07:43:56;-0.10;74.10
78289;DHT22;67539;48.752;12.922;2023-02-28T07:46:26;0.00;73.80
78289;DHT22;67539;48.752;12.922;2023-02-28T07:48:57;0.00;74.50
78289;DHT22;67539;48.752;12.922;2023-02-28T07:51:26;0.10;72.50
78289;DHT22;67539;48.752;12.922;2023-02-28T07:53:55;0.10;73.00
78289;DHT22;67539;48.752;12.922;2023-02-28T07:56:23;0.30;72.10
78289;DHT22;67539;48.752;12.922;2023-02-28T07:58:51;0.30;71.10
78289;DHT22;67539;48.752;12.922;2023-02-28T08:01:21;0.40;71.00
78289;DHT22;67539;48.752;12.922;2023-02-28T08:03:50;0.40;71.00
78289;DHT22;67539;48.752;12.922;2023-02-28T08:06:19;0.50;70.70
78289;DHT22;67539;48.752;12.922;2023-02-28T08:08:48;0.60;70.80
78289;DHT22;67539;48.752;12.922;2023-02-28T08:11:17;0.60;70.90
78289;DHT22;67539;48.752;12.922;2023-02-28T08:13:46;0.70;69.40
78289;DHT22;67539;48.752;12.922;2023-02-28T08:16:15;0.80;69.70
78289;DHT22;67539;48.752;12.922;2023-02-28T08:18:49;0.80;70.20
78289;DHT22;67539;48.752;12.922;2023-02-28T08:21:18;0.90;69.70
78289;DHT22;67539;48.752;12.922;2023-02-28T08:23:47;1.00;70.40
78289;DHT22;67539;48.752;12.922;2023-02-28T08:26:16;1.10;69.60
78289;DHT22;67539;48.752;12.922;2023-02-28T08:28:45;1.20;69.80
78289;DHT22;67539;48.752;12.922;2023-02-28T08:31:15;1.20;69.80
78289;DHT22;67539;48.752;12.922;2023-02-28T08:33:44;1.20;69.70
78289;DHT22;67539;48.752;12.922;2023-02-28T08:36:17;1.30;69.20
78289;DHT22;67539;48.752;12.922;2023-02-28T08:38:45;1.40;69.10
78289;DHT22;67539;48.752;12.922;2023-02-28T08:41:13;1.60;68.40
78289;DHT22;67539;48.752;12.922;2023-02-28T08:43:42;1.70;67.70
78289;DHT22;67539;48.752;12.922;2023-02-28T08:46:12;1.70;66.60
78289;DHT22;67539;48.752;12.922;2023-02-28T08:48:41;1.80;66.80
78289;DHT22;67539;48.752;12.922;2023-02-28T08:51:12;1.90;66.40
78289;DHT22;67539;48.752;12.922;2023-02-28T08:53:42;2.00;65.80
78289;DHT22;67539;48.752;12.922;2023-02-28T08:56:12;2.00;66.10
78289;DHT22;67539;48.752;12.922;2023-02-28T08:58:41;2.10;66.40
78289;DHT22;67539;48.752;12.922;2023-02-28T09:01:10;2.20;65.60
78289;DHT22;67539;48.752;12.922;2023-02-28T09:03:39;2.30;65.80
78289;DHT22;67539;48.752;12.922;2023-02-28T09:06:09;2.30;64.80
78289;DHT22;67539;48.752;12.922;2023-02-28T09:08:38;2.40;64.30
78289;DHT22;67539;48.752;12.922;2023-02-28T09:11:08;2.40;65.10
78289;DHT22;67539;48.752;12.922;2023-02-28T09:13:37;2.50;63.60
78289;DHT22;67539;48.752;12.922;2023-02-28T09:16:08;2.50;64.50
78289;DHT22;67539;48.752;12.922;2023-02-28T09:18:37;2.50;64.70
78289;DHT22;67539;48.752;12.922;2023-02-28T09:21:06;2.60;64.70
78289;DHT22;67539;48.752;12.922;2023-02-28T09:23:35;2.70;64.10
78289;DHT22;67539;48.752;12.922;2023-02-28T09:26:05;2.80;63.90
78289;DHT22;67539;48.752;12.922;2023-02-28T09:28:34;2.90;63.30
78289;DHT22;67539;48.752;12.922;2023-02-28T09:31:03;2.90;62.60
78289;DHT22;67539;48.752;12.922;2023-02-28T09:33:31;2.90;62.00
78289;DHT22;67539;48.752;12.922;2023-02-28T09:36:02;3.00;62.20
78289;DHT22;67539;48.752;12.922;2023-02-28T09:38:30;3.10;63.50
78289;DHT22;67539;48.752;12.922;2023-02-28T09:41:01;3.10;62.80
78289;DHT22;67539;48.752;12.922;2023-02-28T09:43:35;3.20;62.50
78289;DHT22;67539;48.752;12.922;2023-02-28T09:46:11;3.20;62.70
78289;DHT22;67539;48.752;12.922;2023-02-28T09:48:45;3.30;63.00
78289;DHT22;67539;48.752;12.922;2023-02-28T09:51:27;3.30;62.30
78289;DHT22;67539;48.752;12.922;2023-02-28T09:53:57;3.30;61.50
78289;DHT22;67539;48.752;12.922;2023-02-28T09:56:38;3.40;63.20
78289;DHT22;67539;48.752;12.922;2023-02-28T09:59:14;3.50;64.00
78289;DHT22;67539;48.752;12.922;2023-02-28T10:01:52;3.60;62.10
78289;DHT22;67539;48.752;12.922;2023-02-28T10:04:36;3.70;61.40
78289;DHT22;67539;48.752;12.922;2023-02-28T10:07:17;3.70;61.60
78289;DHT22;67539;48.752;12.922;2023-02-28T10:09:51;3.80;62.50
78289;DHT22;67539;48.752;12.922;2023-02-28T10:12:20;3.90;60.80
78289;DHT22;67539;48.752;12.922;2023-02-28T10:14:52;3.90;61.90
78289;DHT22;67539;48.752;12.922;2023-02-28T10:17:23;4.00;62.60
78289;DHT22;67539;48.752;12.922;2023-02-28T10:19:58;4.10;63.10
78289;DHT22;67539;48.752;12.922;2023-02-28T10:22:38;4.20;63.40
78289;DHT22;67539;48.752;12.922;2023-02-28T10:25:17;4.30;64.60
78289;DHT22;67539;48.752;12.922;2023-02-28T10:27:46;4.40;64.20
78289;DHT22;67539;48.752;12.922;2023-02-28T10:30:15;4.50;62.80
78289;DHT22;67539;48.752;12.922;2023-02-28T10:32:48;4.60;62.80
78289;DHT22;67539;48.752;12.922;2023-02-28T10:35:19;4.70;62.90
78289;DHT22;67539;48.752;12.922;2023-02-28T10:37:49;4.70;61.20
78289;DHT22;67539;48.752;12.922;2023-02-28T10:40:31;4.70;61.30
78289;DHT22;67539;48.752;12.922;2023-02-28T10:43:02;4.80;61.60
78289;DHT22;67539;48.752;12.922;2023-02-28T10:45:33;4.80;61.70
78289;DHT22;67539;48.752;12.922;2023-02-28T10:48:05;4.90;62.30
78289;DHT22;67539;48.752;12.922;2023-02-28T10:50:39;4.90;62.40
78289;DHT22;67539;48.752;12.922;2023-02-28T10:53:22;5.00;62.30
78289;DHT22;67539;48.752;12.922;2023-02-28T10:56:00;5.00;61.70
78289;DHT22;67539;48.752;12.922;2023-02-28T10:58:31;5.00;61.90
78289;DHT22;67539;48.752;12.922;2023-02-28T11:01:00;5.10;62.10
78289;DHT22;67539;48.752;12.922;2023-02-28T11:03:31;5.10;63.00
78289;DHT22;67539;48.752;12.922;2023-02-28T11:06:06;5.20;62.70
78289;DHT22;67539;48.752;12.922;2023-02-28T11:08:44;5.30;61.60
78289;DHT22;67539;48.752;12.922;2023-02-28T11:11:13;5.30;62.20
78289;DHT22;67539;48.752;12.922;2023-02-28T11:13:41;5.40;62.50
78289;DHT22;67539;48.752;12.922;2023-02-28T11:16:12;5.40;62.70
78289;DHT22;67539;48.752;12.922;2023-02-28T11:18:44;5.50;61.90
78289;DHT22;67539;48.752;12.922;2023-02-28T11:21:23;5.50;60.90
78289;DHT22;67539;48.752;12.922;2023-02-28T11:23:56;5.50;61.10
78289;DHT22;67539;48.752;12.922;2023-02-28T11:26:42;5.60;61.70
78289;DHT22;67539;48.752;12.922;2023-02-28T11:29:17;5.70;63.10
78289;DHT22;67539;48.752;12.922;2023-02-28T11:32:12;5.70;61.00
78289;DHT22;67539;48.752;12.922;2023-02-28T11:34:43;5.70;61.30
78289;DHT22;67539;48.752;12.922;2023-02-28T11:37:13;5.70;61.00
78289;DHT22;67539;48.752;12.922;2023-02-28T11:39:42;5.80;60.50
78289;DHT22;67539;48.752;12.922;2023-02-28T11:42:29;5.80;60.50
78289;DHT22;67539;48.752;12.922;2023-02-28T11:45:12;5.90;60.80
78289;DHT22;67539;48.752;12.922;2023-02-28T11:47:48;5.90;61.30
78289;DHT22;67539;48.752;12.922;2023-02-28T11:50:27;5.90;59.90
78289;DHT22;67539;48.752;12.922;2023-02-28T11:53:02;6.00;59.10
78289;DHT22;67539;48.752;12.922;2023-02-28T11:55:35;6.00;59.80
78289;DHT22;67539;48.752;12.922;2023-02-28T11:58:26;6.10;60.80
78289;DHT22;67539;48.752;12.922;2023-02-28T12:01:07;6.30;60.50
78289;DHT22;67539;48.752;12.922;2023-02-28T12:03:44;6.20;58.70
78289;DHT22;67539;48.752;12.922;2023-02-28T12:06:21;6.20;58.00
78289;DHT22;67539;48.752;12.922;2023-02-28T12:08:58;6.20;57.90
78289;DHT22;67539;48.752;12.922;2023-02-28T12:11:35;6.20;57.80
78289;DHT22;67539;48.752;12.922;2023-02-28T12:17:39;6.30;58.90
78289;DHT22;67539;48.752;12.922;2023-02-28T12:20:21;6.30;59.10
78289;DHT22;67539;48.752;12.922;2023-02-28T12:23:04;6.20;58.80
78289;DHT22;67539;48.752;12.922;2023-02-28T12:25:53;6.30;59.30
78289;DHT22;67539;48.752;12.922;2023-02-28T12:28:26;6.40;57.00
78289;DHT22;67539;48.752;12.922;2023-02-28T12:30:59;6.30;55.90
78289;DHT22;67539;48.752;12.922;2023-02-28T12:33:32;6.30;58.20
78289;DHT22;67539;48.752;12.922;2023-02-28T12:36:07;6.40;58.60
78289;DHT22;67539;48.752;12.922;2023-02-28T12:38:42;6.50;58.10
78289;DHT22;67539;48.752;12.922;2023-02-28T12:41:13;6.50;58.30
78289;DHT22;67539;48.752;12.922;2023-02-28T12:43:46;6.60;58.50
78289;DHT22;67539;48.752;12.922;2023-02-28T12:46:19;6.60;57.90
78289;DHT22;67539;48.752;12.922;2023-02-28T12:48:53;6.60;59.00
78289;DHT22;67539;48.752;12.922;2023-02-28T12:51:26;6.60;59.00
78289;DHT22;67539;48.752;12.922;2023-02-28T12:54:04;6.60;57.10
78289;DHT22;67539;48.752;12.922;2023-02-28T12:56:39;6.70;57.50
78289;DHT22;67539;48.752;12.922;2023-02-28T12:59:17;6.70;59.00
78289;DHT22;67539;48.752;12.922;2023-02-28T13:05:21;6.80;57.60
78289;DHT22;67539;48.752;12.922;2023-02-28T13:08:08;6.90;58.10
78289;DHT22;67539;48.752;12.922;2023-02-28T13:10:42;7.00;57.00
78289;DHT22;67539;48.752;12.922;2023-02-28T13:13:16;6.90;57.10
78289;DHT22;67539;48.752;12.922;2023-02-28T13:15:58;6.90;57.00
78289;DHT22;67539;48.752;12.922;2023-02-28T13:18:37;6.90;58.00
78289;DHT22;67539;48.752;12.922;2023-02-28T13:21:07;7.00;57.00
78289;DHT22;67539;48.752;12.922;2023-02-28T13:23:41;7.00;56.60
78289;DHT22;67539;48.752;12.922;2023-02-28T13:29:33;6.90;55.70
78289;DHT22;67539;48.752;12.922;2023-02-28T13:32:29;6.90;55.30
78289;DHT22;67539;48.752;12.922;2023-02-28T13:35:35;6.80;56.60
78289;DHT22;67539;48.752;12.922;2023-02-28T13:38:37;6.90;57.60
78289;DHT22;67539;48.752;12.922;2023-02-28T13:41:43;7.00;56.40
78289;DHT22;67539;48.752;12.922;2023-02-28T13:44:14;7.10;57.00
78289;DHT22;67539;48.752;12.922;2023-02-28T13:47:27;7.20;56.30
78289;DHT22;67539;48.752;12.922;2023-02-28T13:50:20;7.10;55.50
78289;DHT22;67539;48.752;12.922;2023-02-28T13:52:57;7.30;56.60
78289;DHT22;67539;48.752;12.922;2023-02-28T13:55:33;7.40;56.80
78289;DHT22;67539;48.752;12.922;2023-02-28T13:58:27;7.50;56.60
78289;DHT22;67539;48.752;12.922;2023-02-28T14:01:29;7.80;56.00
78289;DHT22;67539;48.752;12.922;2023-02-28T14:04:19;8.20;54.30
78289;DHT22;67539;48.752;12.922;2023-02-28T14:06:53;8.40;54.60
78289;DHT22;67539;48.752;12.922;2023-02-28T14:09:25;8.40;54.30
78289;DHT22;67539;48.752;12.922;2023-02-28T14:11:54;8.30;53.30
78289;DHT22;67539;48.752;12.922;2023-02-28T14:14:55;8.10;53.40
78289;DHT22;67539;48.752;12.922;2023-02-28T14:17:24;8.00;54.00
78289;DHT22;67539;48.752;12.922;2023-02-28T14:19:56;7.90;53.70
78289;DHT22;67539;48.752;12.922;2023-02-28T14:22:50;7.80;54.00
78289;DHT22;67539;48.752;12.922;2023-02-28T14:25:31;7.60;54.30
78289;DHT22;67539;48.752;12.922;2023-02-28T14:28:13;7.50;54.40
78289;DHT22;67539;48.752;12.922;2023-02-28T14:30:56;7.60;55.90
78289;DHT22;67539;48.752;12.922;2023-02-28T14:33:32;7.80;55.30
78289;DHT22;67539;48.752;12.922;2023-02-28T14:36:12;8.10;53.70
78289;DHT22;67539;48.752;12.922;2023-02-28T14:38:45;8.30;53.50
78289;DHT22;67539;48.752;12.922;2023-02-28T14:41:20;8.40;53.40
78289;DHT22;67539;48.752;12.922;2023-02-28T14:43:51;8.50;53.40
78289;DHT22;67539;48.752;12.922;2023-02-28T14:46:21;8.60;53.50
78289;DHT22;67539;48.752;12.922;2023-02-28T14:48:50;8.70;52.70
78289;DHT22;67539;48.752;12.922;2023-02-28T14:51:21;8.90;53.30
78289;DHT22;67539;48.752;12.922;2023-02-28T14:53:55;9.10;52.90
78289;DHT22;67539;48.752;12.922;2023-02-28T14:56:26;9.20;51.00
78289;DHT22;67539;48.752;12.922;2023-02-28T14:58:57;9.20;51.20
78289;DHT22;67539;48.752;12.922;2023-02-28T15:01:25;9.30;51.50
78289;DHT22;67539;48.752;12.922;2023-02-28T15:03:58;9.20;51.60
78289;DHT22;67539;48.752;12.922;2023-02-28T15:06:29;9.20;49.80
78289;DHT22;67539;48.752;12.922;2023-02-28T19:07:59;2.60;69.90
78289;DHT22;67539;48.752;12.922;2023-02-28T19:10:27;2.60;69.90
78289;DHT22;67539;48.752;12.922;2023-02-28T19:12:55;2.60;70.10
78289;DHT22;67539;48.752;12.922;2023-02-28T19:15:23;2.60;69.70
78289;DHT22;67539;48.752;12.922;2023-02-28T19:17:51;2.60;69.30
78289;DHT22;67539;48.752;12.922;2023-02-28T19:20:19;2.60;69.70
78289;DHT22;67539;48.752;12.922;2023-02-28T19:22:48;2.60;69.70
78289;DHT22;67539;48.752;12.922;2023-02-28T19:25:18;2.60;70.30
78289;DHT22;67539;48.752;12.922;2023-02-28T19:27:46;2.60;69.80
78289;DHT22;67539;48.752;12.922;2023-02-28T19:30:14;2.60;70.30
78289;DHT22;67539;48.752;12.922;2023-02-28T19:32:43;2.50;70.50
78289;DHT22;67539;48.752;12.922;2023-02-28T19:35:11;2.60;70.90
78289;DHT22;67539;48.752;12.922;2023-02-28T19:37:40;2.60;71.10
78289;DHT22;67539;48.752;12.922;2023-02-28T19:40:10;2.60;70.60
78289;DHT22;67539;48.752;12.922;2023-02-28T19:42:40;2.60;70.80
78289;DHT22;67539;48.752;12.922;2023-02-28T19:45:09;2.60;70.50
78289;DHT22;67539;48.752;12.922;2023-02-28T19:47:40;2.70;70.30
78289;DHT22;67539;48.752;12.922;2023-02-28T19:50:10;2.70;70.10
78289;DHT22;67539;48.752;12.922;2023-02-28T19:52:38;2.70;70.50
78289;DHT22;67539;48.752;12.922;2023-02-28T19:55:08;2.60;70.90
78289;DHT22;67539;48.752;12.922;2023-02-28T19:57:36;2.60;70.20
78289;DHT22;67539;48.752;12.922;2023-02-28T20:00:07;2.60;70.80
78289;DHT22;67539;48.752;12.922;2023-02-28T20:02:39;2.60;70.30
78289;DHT22;67539;48.752;12.922;2023-02-28T20:05:08;2.60;70.70
78289;DHT22;67539;48.752;12.922;2023-02-28T20:07:36;2.50;70.80
78289;DHT22;67539;48.752;12.922;2023-02-28T20:10:05;2.50;71.10
78289;DHT22;67539;48.752;12.922;2023-02-28T20:12:33;2.50;71.00
78289;DHT22;67539;48.752;12.922;2023-02-28T20:15:01;2.40;71.40